Iraq

Loading map ...

Latest comments about airports in Iraq

Picture of

(no subject)

BOMBLAST. SOUTHINDIA SHOPPING MAAL. HERE. DISHBOX. WIRES. ELECTRIFIED BOMB. IN. PROCLAINER. ARUNA. NALLURI. SPOFFICE DETAIL S. NAGALAXSHMI. AID. DETAILS. ..BLUEDOT. AGAINST. HERE. OFFICERS. ALL. IN. DANGER. NURJAHAN MILKMAN HERE. TIRUMALA. MILKWASH. HILLS. TO. KEEP9709455908. details. .9490588193..DISHMAN. TVSRAVI LTTE. N. MODUGULA. GAS. ALL SAME. VIJETHA SUPERMARKET SPENCERS. DETAILS. IPABOY. CARRIYING. NURJAHAN. PRESSURE MY. LEG. CARGODOWN. HERE. CAR BOMBS. TO. ALL. PS. INJECTION AMPLES. POWERFUL. NARSARAOPET. RAILWAY STATION DANGER FACING. FROM. NURJAHAN NIVEDA NARSAIAH. GANGADHAR. REMOVE

Sent from my Samsung Galaxy smartphone.

Picture of

(no subject)

98.3 fm vijayawada BENJCIRCLE. NOT COMING DANGER TO RJBHARATHI NO LIGHTS JKC NET CENTRE.Thefts. Here in my. Room. By. Babu neighbour one. With senesence jewells ELIZBETHS UNDER 9666388262 no.his

Picture of

(no subject)

[15/11 03:35] DR.SONY VOHRAL: Here BEGGEROLD. BISCUITS PACKET TO PASS. BY. N CHRISTIAN. AT. ATTOTA KAVITHA. SISTER FOR. KILLING. KIDS. N. DR.SUPPORT ON. DISABLED. IS BUSPASS PRINTER. N. PASSING ALL THOSE. SCISSOR GOLDEN N. LARGE. BALLPOINT SISTERS. HOLDS. FOR. GOLD TRACING. GOLDTRAIN FOLLOWED BY SHEEPMORE. GIRL COVEREDBY CAP MADE DISABLED. LATER.

[15/11 03:35] DR.SONY VOHRAL: SASIKALA OWNER. FALSEINDIRAGANDHI ARRIVING

[15/11 03:38] DR.SONY VOHRAL: Sallonmannot arrived. Sindhuja of axon city also. One such. SENESCENCE LADY. GIRL. THEFTER. USES MY SCISSORS IN MY ABSENCE. WHEN. GOLDSCISSOR. WITHHER. BABUNAVEENAHOSTEL. MUSICCOLLEGE. PFOF. S. ALSO. HERE. MS.SUBBALAXSHMI N OUR. DREAMY. SRIVIDYA. SHOWS. FACTORIES. CHALLA ANURADH . GOLDENNIB. AMALASISTER. TAKENMY. PARKERPEN SENTBY. KAREN. SILVERGLASSBY. ANOTHER. BRONZE N. CHARGERS SILVER LORD BY SAIBABASCHOOL SANTHAPET.VALLUR.ONGOLE. KAKANITHOTA. FOR. PAPERS TO WRITE. BIBLEMOSTLY FORTHIS PURPOSES

Picture of

(no subject)

HERE at Arandlepet. TALUQOFFICE. THE DISABLED. THREECHAIRED MAN ISSUING BUSPASSES FOR MORE PRICE. MAKES. CHILDREN DISABLED TAKING ON HIS WHEELS AND ARRANGED VAN ALONG ELIZABETH USH A DSRCALEED VIKRAVIVEKA THAT CAMPUS JHANSICOMES OLD LADY BEING TWOBOYSSAYS ALLHAPPENED CUTTING THEIR BODYARMS. WHEELCHAIR UCAN SIT WHATRAYTHIS FELLOW SAYS NEARBY SODAMAN PROVIDES POISONFROM FACTORY THEY BROUGHT ALL THIS NEEDED .SHOPCHOCOLATES. LODGECENTRE THREATEN BY PLASMA N IVARANDLEPETPOLICESTATION. PATTABHIPURAM TOGARLENDBOMBING. AMBEDKAR STATUE. 125HUGE STATUE BY BABU KODELA WURF NARSAISHPREGNANTCOITUS. NAAZANURADHA ON FACIALSBI. BHARATHIRJ DIVYAKOTAK THREATENFROM A BOVEDISABLED THREATEN TO DR.SENAKKAYALA ARUNA 9246515666 N GOV. DR.RAJAMANI.NO.9849903085......SCENESCENCE no.837577785 Falling behind. Kavithagovt.college lecturer BAPATLA N VARALAXSHMIMADAM SPMAHILAVERSITY.TIRUPATHI. GIRLS OF ALL COLLEGES TO. GOV'T COLLEGE NAAZ ALONG WITH RAMARAJU ANOTHERLADYOF ZOOLOGY. SUMA. SOWJANYA. PARTTIMER OF CHAITANYA NOWWORKING IN GOVTCOLLEGE BENAZIR NAME FOR AIRPORT ALTERED AIRPORT INDANGER. PostalSAMOOORNA N BHAGYALAX. IN DANGER BHATHI BABU BY OLDMAN IN POSTOFFICE. NEAR COLLECTORATE. SONIA PROHIBITED TO. VISIT. GUNTUR. ..

Picture of Arumugam

(no subject)

I wish to travel by this route of airport

Picture of

(no subject)

Why you used my phone number for this page ?

Picture of

(no subject)

Here Anuradha of SBI. NAAZ centre no.7680927888 facial on myc sir.ugc exam no.328788..pass votercard nag ms.return Mumbai incident photos with Delhi traffic no.8750871493..for devices details Macedonia sister and Him net mom

Picture of

(no subject)

Telugu mom serious at Geneva newportleylan.London. newwales.another at Columbus airport USA.

Picture of

Translator

Hi, how i can check if the U.S army needs a translator in Al Asad Air Base. thanks.

Picture of

(no subject)

[10/07 08:39] Dr.Sony Vohral: HERE MY SBI NO.20284764994. Four typed threes thousand dated 5.7.17 at 1.22pm...next thousand perfect came FIVE HUNDREDS

N TWO THOUSANDS AVAILABLE SHOWN ONLY HUNDREDS CAME

NOTEWORTHY N KFC CHICKEN CENTRE MINE GIVE TO HINNY MOM SAHIMAM UNDER BAR LOCATED BEFORE MINE FALSE PROOF ONLY..PANTALOONS PLUGTOWER

INCOME TAX OFFICE OWN HOUSE GARDEN TOWERSQUEENES BEATY PARLOUR NEAR CHAITANYA

COLLEGE S TWO LMAIN CAMPUSES SEEMA LOOKING

AFTER.. ARLIER thirty thousands loan ON Srinivalureddy.. DETAILS my salary at spmvvc tirupathi Andhra bank sbifathehkhanpet...Nell. andhra bank...treasury my PPO NO.07030708 and

328188 my CSIR NO..LECTURER SHIP. Nominee no.9992987..SBI NO.10392278730..ONGOLE .30993252160 NEL KINDLY SET MY MEDICINES CNF. Montek LC ..Axit-0.25...WELLWOMAN. TABLETS ALL SIVA MEDICAL S KASUMANIBROTHER HERE..SANJEEVINICOMPLEX.DR.KARUNA ALVELI..GRANDMOM OF MY OWN ANDAMAN NICOBAR ISLANDS NEAR ISLANDS HERE DETAILS FOR

[11/07 04:44] Dr.Sony Vohral: GRANDNAGARJUNA ELIZABETH SSRIVIDYA MS NEWSREADER.

[11/07 04:48] Dr.Sony Vohral: Here yesterday vijayawada airport children attacked n killed all not safe Cairo nor one girl not traced..AIRPORT UNDÈR Total attack yesterday. Chaitanya college ss ARE nearby located narayana also well trained for attack on airport s EARLIER vishnupriya.

[11/07 04:50] Dr.Sony Vohral: Kakani airport people hiding.i

Picture of

(no subject)

[06/06 1:48 AM] Dr.Sony Vohral: Soniagand wife 9441789979.attack on. Airport s. Serena pregnant drama same my IG PENSION CSIR UGC exam marks statement night music COITUS.

[06/06 8:06 AM] Dr.Sony Vohral: 7019375461...making calls and. Harassing n threatening to come heee. Naveena hostel man vandemataram Rajesh. Hospitals. Lalitha super his. Undet

[07/06 9:19 AM] Dr.Sony Vohral: 9440396300..9440675656...husband s at. Neegro. Countries of Elizabeth 9441666677.

Picture of

(no subject)

Here Soniagandhi all her families located at all airports fake calls on taking airport s into control false police with

Picture of

(no subject)

Nagalaxshmi IAS NEED SAFETYBELTS..CUSHION SEATING..FLYING PROOOF MATERIALS. HELMETS.. ROPES..LONGJUMP..BUCKETS.. AEROPLANE TOWELS. FLYINGKITS ALL NECESSARY ...INTIMATE MOM ALSO...

Picture of

Terminals

Hello: Has anyone been through the terminals recently? I understand there is a not of construction going on? How is it coming?

How are the duty-free shops?

Picture of charlymorton

Duplicate to ORNI, please delete

Duplicate to ORNI, please delete

Picture of

Basrah Airport

امنياتي ان يكون مطار البصره احسن مطار بالعالم

لكن الخدمات منهكه والشرطه تدخن امام المسافرين والشرطه تكسر النظام وتضع من يعرفونهم امامك في الانتظار

اما تاكسي المطار فياخد خمس وعشلرون دينار لدقيقتان فقط

Picture of

kill

hi I will kill u

Picture of

Hazards

lots of landing strips , huge area. Watch out for sand storms and take precautions to protect engines and electrical equipment. The dust has over a hundred toxins and many harmful bacteria that will render important electrics useless as well as provide incorrect data. Stay on hard top except to travel on hard pan well used roads. UXO is there to be found and when found will almost certainly explode in your hands killing U and people near you. Before you back away, look around for other material. The HE gets really brittle in the sun, heat and will explode with a good sneeze. Filter your water. Bring antibiotics, don't swim in the lake and welcome yourself to a portal to hell

Picture of

re: CONTACT INFORMATION

dear sir i will be happy to travel in erbil intrnational airport next week . please help to check this number << 991811 >> it's my visa number , and i will collect my visa in the erbil international airport on arrival . my mail is << mouchon10@yahoo.fr > i am waiting for your answer

Picture of

re: CONTACT INFORMATION

hello sir ! i want to travel to erbil next week . please can you help me to check this number for me << 991811 >> it's my visa number from the airport . thank you

Picture of eppcap

EIA

My second "home" airport. I am an international legal advisor for EIA/EBL.

Picture of

CONTACT INFORMATION

It would be a great service to provide contact information for airport manager, air traffic conrol tower, director of air traffic, etc.

Picture of

re: also has KQTX code

Reply to @ptomblin: This is correct. "KQ" ICAOs are reserved for DoD use. You'll see KQs for the US weather stations in Iraq, Afghanistan, anywhere the US is stationed overseas. "EQ" is the NATO equivalent. In the case of KQTX, that's the weather station at Kirkuk. ORKK is the airport ICAO. Observations from ORKK are from the Iraqis whereas observations from KQTX are from the Americans.

Picture of ptomblin

re: also has KQTX code

Reply to @thesis: Look what it says on the "KQ" header: "(METAR weather station sites operated by the U.S. Department of Defense)"

In other words, "KQTX" isn't the airport, it's the weather station.

Picture of thesis
Picture of thesis

re: update

Reply to @ptomblin:

Thanx.

I get the occasional weather reports, such as listed below. In one newsletter mentioned codes KQ?? and OR??.

Maybe it's really U.S. military base, which is actually located in Iraq, but has a code of a group of KQ?? for administrative reasons?

SAIQ31 KWBC 020400

METAR KQAD NIL=

METAR KQAE 020355Z 31003KT 9999 CLR 10/05 A3009 RMK SLP189=

METAR KQEZ NIL=

METAR KQMG NIL=

METAR KQMH NIL=

METAR KQTO 020355Z 29005KT 9999 FEW005 08/05 A3005 RMK FU FEW005

SLP178=

METAR KQTU 020355Z 03003KT 8000 HZ FEW150 09/06 A3006 RMK SLP182=

METAR KQTW NIL=

METAR KQTX 020355Z VRB02KT 9999 CLR 09/05 A3003 RMK SLP175=

METAR KQTZ 020355Z 26004G13KT 9999 CLR 10/05 A3007 RMK SLP183

QNH1018MB

WND DATA ESTMD ALSTG/SLP ESTMD=

METAR KQVO NIL=

METAR KQXJ 020355Z 28010KT 9999 CLR 09/02 A3007 RMK SLP177 PA-117

DA-775=

METAR KQXN NIL=

METAR ORBI 020400Z 29006KT CAVOK 09/05 Q1018 NOSIG=

METAR ORER NIL=

-----------------------------------

SAIQ31 KWBC 071100

METAR

KQAD NIL=

METAR KQAE 071055Z 16017G24KT 1000 BLDU VV008 24/00 A2997 RMK SLP149

=

METAR KQEZ NIL=

METAR KQMG NIL=

METAR KQMH NIL=

METAR KQTO 071055Z 16022G36KT 2400 BLDU SCT000 BKN150 24/M02 A2994 RMK

PK WND 15037/36 DU SCT000 SLP155=

METAR KQTU 071055Z 15012G19KT 2000 DU BR BKN100 14/03 A3000 RMK

TWR VIS 1600 SLP159 DA+722 RH49=

METAR KQTW NIL=

METAR KQTX 071055Z 15024G31KT 0800 DS BKN000 OVC090 20/M05 A2995 RMK

PK WND 14937/35 SLP139=

METAR KQTZ 071055Z 12020G41KT 2000 BLDU OVC010 24/00 A2995 RMK DU

OVC010 PK WND 12041/44 12041/55 SLP140 QNH1014MB WND DATA ESTMD

ALSTG/SLP ESTMD=

METAR KQVO NIL=

METAR KQXJ 071055Z 15023G28KT 2600 BLDU SCT015 BKN020 OVC025 28/M01 A3000

RMK DU SCT015 BKN020 OVC025 SLP159 PA-53 DA+1488=

METAR KQXN NIL=

METAR ORBI NIL=

METAR ORER NIL=

Picture of ptomblin

re: update

Reply to @ptomblin: There seems to be evidence on the net that there is a weather station here with the ICAO code KQMG, but since, as I said, ICAO codes starting with K are reserved for the US, I can only speculate that this is a US armed forces weather station, not an Iraqi one. Iraqi airports that have ICAO codes have codes that start with "OR". All ICAO airport codes are 4 letters long, and one or two letters of that code designate the country, so airports in the "lower 48" contiguous US states that have ICAO codes (not all do, some have local codes) have codes that start with "K", airports in Alaska, Hawaii and Puerto Rico have codes that start with "PA", "PH" and "TJ" respectively, Canadian airports have codes that start with "C", etc.

Picture of ptomblin

re: update

Reply to @thesis: ICAO codes starting with K are only for airports in the US. Whoever told you this one was KQMG is full of it.

Picture of thesis
Picture of rogerj

re: An Ex RAF base, Was MEAF HQ in 1950's

"From someone who also was posted to Iraq, Shaibah in '54", I remember that train trip well, at one time it was so slow that a couple of us stepped off and walked awhile and climbed back on board. Many,many moons ago!!!

Picture of

South Tikrit Camp

I left my footprints in the sands around the DFAC, whilst looking after the American troops, I also built the buildings around the DFAC. These buildings were the accommodation for my Indian workers, innocent young lads who had never venture out of India, but return as fine hard working men.

Picture of

An Ex RAF base, Was MEAF HQ in 1950's

When i was posted to Iraq in 1954 I was in the tented transit camp at Habbaniya for two weeks before travelling by train down to RAF Shaibah

Picture of david

Story about camp life for US troops at Bashur in 2003

http://www.globalsecurity.org/military/world/iraq/bashur.htm

Picture of

Thanks

My son is there part of the 1-214th, I miss him but am proud of his service! Thanks for your service!

Picture of david

Reopened to civilian flights

The Mosul airport in Iraq reopened to civilian flights on 2 December 2007 -- it had been shut down since 1992 because of the U.S. no-fly zone and then the second Iraq war:

http://www.voanews.com/english/archive/2007-12/2007-12-04-voa9.cfm

All comments